Roundup, MT

12:41 AM MDT on October 25, 2014 (GMT -0600)
Billings Logan International | Change Station
CLOSE
Current Station
Airport
Location: Billings,
Elevation: 3570 ft
Nearby Weather Stations

Elev 3570 ft 45.81 °N, 108.54 °W | Updated 48 minutes ago

Clear
Clear
47 °F
Feels Like 47 °F
N
5
Wind Variable Wind from North

Today
High -- | Low -- °F
--% Chance of Precip.
Yesterday
High -- | Low -- °F
Precip. -- in
7:45 AM 6:10 PM
New Moon, 2% visible
Pressure 30.10 in
Visibility 10.0 miles
Clouds Clear
Dew Point 35 °F
Humidity 63%
Rainfall 0.00 in
Snow Depth Not available.
UV 0 out of 12
Pollen 1.70 out of 12
Air Quality Not available.
Flu Activity No Activity
METAR KBIL 250553Z 01004KT 10SM CLR 08/02 A3010 RMK AO2 SLP191 T00830017 10133 20067 53002

More Conditions Fewer Conditions

Pressure 30.10 in
Visibility 10.0 miles
Clouds Clear
Dew Point 35 °F
Humidity 63%
Rainfall 0.00 in
Snow Depth Not available.
UV 0 out of 12
Pollen 1.70 out of 12
Air Quality Not available.
Flu Activity No Activity
METAR KBIL 250553Z 01004KT 10SM CLR 08/02 A3010 RMK AO2 SLP191 T00830017 10133 20067 53002

More Conditions Fewer Conditions

10-Day Weather Forecast

Almanac

Astronomy

Oct. 25, 2014 Rise Set
Actual Time 7:45 AM MDT 6:10 PM MDT
Civil Twilight 7:14 AM MDT 6:41 PM MDT
Nautical Twilight 6:39 AM MDT 7:16 PM MDT
Astronomical Twilight 6:04 AM MDT 7:51 PM MDT
Moon 9:32 AM MDT 7:30 PM MDT
Length of Visible Light 11h 26m
Length of Day
10h 24m
Tomorrow will be 3m 3s shorter.
New Moon, 2% of the Moon is Illuminated
Today
New Moon
Oct 30
First Quarter
Nov 6
Full
Nov 14
Last Quarter
Nov 22
New

Community

WunderPhotos

Upload Photos

1,764,787 photos uploaded!

Nearby

Snow Depth

Station Depth Elevation
Crystal Lake 1 in 6050 ft
Daisy Peak 0 in 7600 ft
Burnt Mountain 1 in 5880 ft
South Fork Shields 1 in 8100 ft
Porcupine 0 in 6500 ft

Earthquake Activity

City Distance Mag. Time & Date
No recent earthquake activity has been reported nearby.
Minimum magnitude displayed is 2.5.

Coastal Water Temperatures

Place Temperature
No Stations Reporting

Nearby Weather Stations